AerodromSadržaj METAR izveštaja
LYBEMETAR LYBE 200930Z 22010KT CAVOK 22/12 Q1007 NOSIG=
LYBTMETAR LYBT 200930Z 18007KT 150V220 9999 FEW030 22/12 Q1007 NOSIG=
LYKVMETAR LYKV 200930Z VRB02KT 9999 SCT043 22/13 Q1007 NOSIG=
LYNIMETAR LYNI 200930Z 08006KT 030V120 9999 FEW040 SCT050 19/12 Q1009 NOSIG=
LYVRMETAR LYVR 200930Z 15009KT 120V200 9999 FEW033 21/13 Q1007 NOSIG=
LYUZMETAR LYUZ 200930Z 22004KT 150V290 9999 BKN020 15/06 Q1009=
LYPGMETAR LYPG 200930Z 14005KT 060V220 9999 SCT020 SCT040 19/13 Q1011 NOSIG=
LYTVMETAR LYTV 200930Z 20005KT 140V270 9999 FEW036 FEW043TCU 20/11 Q1011 NOSIG=

Podaci učitani u: 2019-05-20 09:37:00 UTC

METAR, TAF, AIRMET, GAMET, SIGMET

Važna napomena: MET infоrmаciје nа оvim web strаnicаmа imајu infоrmаtivni kаrаktеr, nаmenjene su isključivo vаzduhоplоvnim kоrisnicima, nе smејu sе kоristiti zа bilо kоје kоmеrciјаlnе svrhе, i nе zаmеnjuјu dоkumеntаciјu zа lеt.